Time;durP1;ratioP1;P1;durP2;ratioP2;P2;SDS_P1;SDS_P2;PMS_P1;PMS_P2;Temp;Humidity;BMP_temperature;BMP_pressure;BME280_temperature;BME280_humidity;BME280_pressure;Samples;Min_cycle;Max_cycle;Signal;HPM_P1;HPM_P2
2022/06/04 00:00:17;;;;;;;19.70;10.73;;;;;;;;;;10284861;28;20051;-69
2022/06/04 00:05:40;;;;;;;17.30;11.10;;;;;;;;;;10297215;28;20059;-69
2022/06/04 00:16:07;;;;;;;18.98;11.05;;;;;;;;;;10290924;28;20071;-69
2022/06/04 00:21:12;;;;;;;19.65;11.35;;;;;;;;;;10277829;28;20238;-68
2022/06/04 00:26:14;;;;;;;15.55;11.27;;;;;;;;;;10290740;28;20266;-68
2022/06/04 00:31:19;;;;;;;20.63;12.75;;;;;;;;;;10276841;28;20067;-68
2022/06/04 00:36:22;;;;;;;21.75;11.20;;;;;;;;;;10290270;28;20051;-68
2022/06/04 00:41:34;;;;;;;22.13;11.60;;;;;;;;;;10289594;28;20129;-68
2022/06/04 00:47:07;;;;;;;14.00;10.00;;;;;;;;;;10290015;28;20070;-68
2022/06/04 00:52:15;;;;;;;18.73;10.43;;;;;;;;;;10276124;28;20054;-68
2022/06/04 00:57:45;;;;;;;15.68;9.50;;;;;;;;;;10276760;28;20054;-67
2022/06/04 01:03:00;;;;;;;16.30;10.13;;;;;;;;;;10289028;28;20242;-68
2022/06/04 01:08:20;;;;;;;15.77;10.13;;;;;;;;;;10289172;28;20323;-68
2022/06/04 01:13:34;;;;;;;23.83;10.98;;;;;;;;;;10276494;28;20238;-69
2022/06/04 01:18:44;;;;;;;16.05;10.98;;;;;;;;;;10288591;28;20127;-68
2022/06/04 01:24:29;;;;;;;15.13;10.80;;;;;;;;;;10288525;28;20333;-68
2022/06/04 01:29:38;;;;;;;17.92;11.18;;;;;;;;;;10280767;28;20376;-69
2022/06/04 01:34:46;;;;;;;15.98;10.02;;;;;;;;;;10288040;28;20074;-68
2022/06/04 01:45:16;;;;;;;14.05;9.98;;;;;;;;;;10287908;28;20077;-68
2022/06/04 01:50:24;;;;;;;12.10;9.48;;;;;;;;;;10287775;28;20396;-68
2022/06/04 01:55:35;;;;;;;12.50;9.50;;;;;;;;;;10287342;28;20062;-68
2022/06/04 02:00:43;;;;;;;13.77;10.38;;;;;;;;;;10287600;28;20039;-68
2022/06/04 02:05:49;;;;;;;18.15;10.15;;;;;;;;;;10286906;28;20081;-69
2022/06/04 02:10:56;;;;;;;18.65;9.85;;;;;;;;;;10286286;28;20043;-68
2022/06/04 02:16:04;;;;;;;15.88;10.00;;;;;;;;;;10273924;28;20142;-69
2022/06/04 02:21:07;;;;;;;16.48;9.95;;;;;;;;;;10283951;28;20050;-68
2022/06/04 02:26:09;;;;;;;25.05;10.10;;;;;;;;;;10273211;28;20089;-69
2022/06/04 02:31:18;;;;;;;14.20;9.50;;;;;;;;;;10274288;28;20086;-68
2022/06/04 02:36:31;;;;;;;19.05;10.50;;;;;;;;;;10272938;28;20055;-69
2022/06/04 02:41:37;;;;;;;16.70;10.10;;;;;;;;;;10285787;28;20066;-69
2022/06/04 02:46:45;;;;;;;13.95;9.65;;;;;;;;;;10285796;28;20125;-68
2022/06/04 02:51:52;;;;;;;13.20;10.13;;;;;;;;;;10286296;28;20044;-68
2022/06/04 02:56:57;;;;;;;15.15;8.95;;;;;;;;;;10273676;28;20358;-69
2022/06/04 03:02:02;;;;;;;13.02;8.85;;;;;;;;;;10286686;28;20050;-69
2022/06/04 03:07:06;;;;;;;16.40;9.63;;;;;;;;;;10285597;28;20043;-68
2022/06/04 03:12:09;;;;;;;12.90;9.18;;;;;;;;;;10286427;28;20073;-69
2022/06/04 03:17:13;;;;;;;13.35;9.70;;;;;;;;;;10272148;28;20051;-69
2022/06/04 03:22:17;;;;;;;17.65;10.43;;;;;;;;;;10285048;28;20188;-69
2022/06/04 03:27:19;;;;;;;16.05;10.75;;;;;;;;;;10281565;28;20067;-68
2022/06/04 03:32:23;;;;;;;18.38;10.88;;;;;;;;;;10284125;28;20058;-68
2022/06/04 03:37:26;;;;;;;27.60;11.80;;;;;;;;;;10284039;28;20055;-68
2022/06/04 03:42:28;;;;;;;18.95;11.63;;;;;;;;;;10268574;28;20059;-69
2022/06/04 03:47:36;;;;;;;22.23;14.40;;;;;;;;;;10286548;28;20062;-69
2022/06/04 03:52:43;;;;;;;21.80;13.52;;;;;;;;;;10278624;28;20338;-69
2022/06/04 03:57:48;;;;;;;22.15;13.15;;;;;;;;;;10291291;28;20334;-68
2022/06/04 04:02:55;;;;;;;21.20;13.07;;;;;;;;;;10292011;28;20058;-68
2022/06/04 04:07:59;;;;;;;18.02;11.95;;;;;;;;;;10277531;28;20062;-69
2022/06/04 04:13:02;;;;;;;16.15;10.48;;;;;;;;;;10291351;28;20242;-69
2022/06/04 04:18:06;;;;;;;19.55;10.90;;;;;;;;;;10290307;28;20050;-69
2022/06/04 04:23:09;;;;;;;16.45;10.00;;;;;;;;;;10290727;28;20071;-69
2022/06/04 04:28:12;;;;;;;13.80;8.98;;;;;;;;;;10284990;28;20047;-69
2022/06/04 04:33:16;;;;;;;19.10;9.57;;;;;;;;;;10276412;28;20055;-69
2022/06/04 04:38:21;;;;;;;16.20;8.93;;;;;;;;;;10290322;28;20094;-70
2022/06/04 04:43:23;;;;;;;26.17;16.52;;;;;;;;;;10289129;28;20246;-69
2022/06/04 04:48:26;;;;;;;12.55;8.10;;;;;;;;;;10289550;28;20051;-70
2022/06/04 04:53:28;;;;;;;13.00;7.55;;;;;;;;;;10288889;28;20089;-70
2022/06/04 04:58:31;;;;;;;10.50;7.22;;;;;;;;;;10288840;28;20050;-70
2022/06/04 05:03:36;;;;;;;9.40;6.93;;;;;;;;;;10288542;28;20063;-69
2022/06/04 05:08:38;;;;;;;9.40;5.95;;;;;;;;;;10270463;28;20263;-72
2022/06/04 05:13:41;;;;;;;10.40;6.15;;;;;;;;;;10259590;28;20227;-72
2022/06/04 05:18:44;;;;;;;11.02;6.57;;;;;;;;;;10283119;28;20043;-70
2022/06/04 05:23:47;;;;;;;13.90;6.78;;;;;;;;;;10288661;28;20114;-70
2022/06/04 05:28:50;;;;;;;19.20;9.27;;;;;;;;;;10268648;28;20067;-69
2022/06/04 05:33:53;;;;;;;10.25;5.90;;;;;;;;;;10286216;28;20047;-69
2022/06/04 05:38:55;;;;;;;10.10;5.82;;;;;;;;;;10283128;28;20047;-69
2022/06/04 05:43:58;;;;;;;10.23;6.00;;;;;;;;;;10273802;29;20063;-69
2022/06/04 05:49:01;;;;;;;7.00;5.72;;;;;;;;;;10284596;28;20373;-68
2022/06/04 05:54:04;;;;;;;10.98;6.07;;;;;;;;;;10269936;28;20051;-69
2022/06/04 05:59:08;;;;;;;18.63;7.25;;;;;;;;;;10271721;28;20070;-70
2022/06/04 06:04:14;;;;;;;6.97;5.25;;;;;;;;;;10261674;29;20063;-69
2022/06/04 06:09:20;;;;;;;14.70;5.20;;;;;;;;;;10259011;28;20093;-69
2022/06/04 06:14:24;;;;;;;6.80;5.05;;;;;;;;;;10276744;28;20043;-70
2022/06/04 06:19:29;;;;;;;7.80;5.20;;;;;;;;;;10268588;28;20040;-70
2022/06/04 06:24:31;;;;;;;9.82;5.38;;;;;;;;;;10282810;28;20331;-70
2022/06/04 06:29:34;;;;;;;9.75;5.50;;;;;;;;;;10268271;28;20239;-69
2022/06/04 06:34:37;;;;;;;6.60;5.07;;;;;;;;;;10276085;28;20075;-70
2022/06/04 06:39:39;;;;;;;8.02;5.93;;;;;;;;;;10270589;28;20059;-69
2022/06/04 06:44:41;;;;;;;8.35;5.68;;;;;;;;;;10268549;28;20047;-71
2022/06/04 06:49:45;;;;;;;9.88;6.18;;;;;;;;;;10275755;28;20062;-68
2022/06/04 06:54:48;;;;;;;8.77;6.32;;;;;;;;;;10268904;28;20342;-70
2022/06/04 06:59:50;;;;;;;10.98;6.72;;;;;;;;;;10262204;28;20039;-69
2022/06/04 07:04:53;;;;;;;8.43;5.93;;;;;;;;;;10269841;28;20093;-68
2022/06/04 07:09:55;;;;;;;6.50;4.72;;;;;;;;;;10252958;28;20081;-70
2022/06/04 07:14:58;;;;;;;7.25;5.18;;;;;;;;;;10258397;29;20270;-68
2022/06/04 07:20:01;;;;;;;9.07;5.30;;;;;;;;;;10269801;28;20058;-68
2022/06/04 07:25:04;;;;;;;7.53;4.73;;;;;;;;;;10292559;28;20086;-70
2022/06/04 07:30:07;;;;;;;5.28;4.18;;;;;;;;;;10278861;28;20067;-69
2022/06/04 07:35:11;;;;;;;8.38;4.80;;;;;;;;;;10267411;28;20055;-71
2022/06/04 07:40:13;;;;;;;7.13;4.38;;;;;;;;;;10270451;29;20059;-70
2022/06/04 07:45:16;;;;;;;4.20;3.35;;;;;;;;;;10278003;28;20054;-70
2022/06/04 07:50:19;;;;;;;3.55;2.83;;;;;;;;;;10273528;28;20078;-69
2022/06/04 07:55:21;;;;;;;4.63;3.58;;;;;;;;;;10282076;28;20051;-68
2022/06/04 08:00:24;;;;;;;4.57;3.08;;;;;;;;;;10262329;29;20306;-69
2022/06/04 08:05:29;;;;;;;7.50;4.03;;;;;;;;;;10282196;28;20072;-69
2022/06/04 08:10:31;;;;;;;3.40;3.30;;;;;;;;;;10281407;28;20047;-69
2022/06/04 08:15:34;;;;;;;10.20;9.80;;;;;;;;;;10281353;28;20097;-69
2022/06/04 08:20:41;;;;;;;14.77;14.07;;;;;;;;;;10275690;28;20243;-68
2022/06/04 08:25:47;;;;;;;8.23;7.93;;;;;;;;;;10275199;28;20062;-69
2022/06/04 08:31:02;;;;;;;0.50;0.50;;;;;;;;;;10260429;28;20048;-67
2022/06/04 08:36:08;;;;;;;0.00;0.00;;;;;;;;;;10280496;28;20062;-68
2022/06/04 08:41:24;;;;;;;4.93;1.60;;;;;;;;;;10285119;28;20614;-69
2022/06/04 08:46:31;;;;;;;2.20;1.55;;;;;;;;;;10288095;28;20234;-70
2022/06/04 08:51:35;;;;;;;0.52;0.52;;;;;;;;;;10261350;28;20271;-69
2022/06/04 09:02:00;;;;;;;0.20;0.20;;;;;;;;;;10261532;29;20055;-69
2022/06/04 09:07:10;;;;;;;0.20;0.20;;;;;;;;;;10281689;28;20314;-72
2022/06/04 09:12:33;;;;;;;0.00;0.00;;;;;;;;;;10258171;29;20058;-69
2022/06/04 09:17:41;;;;;;;1.80;1.45;;;;;;;;;;10283051;28;20067;-68
2022/06/04 09:22:48;;;;;;;3.88;1.20;;;;;;;;;;10265348;29;20047;-69
2022/06/04 09:28:02;;;;;;;2.47;1.35;;;;;;;;;;10282957;28;20126;-69
2022/06/04 09:33:42;;;;;;;3.55;1.30;;;;;;;;;;10284109;28;20039;-68
2022/06/04 09:38:54;;;;;;;1.98;1.35;;;;;;;;;;10270676;29;20077;-70
2022/06/04 09:44:06;;;;;;;2.05;1.40;;;;;;;;;;10277291;28;20046;-68
2022/06/04 09:49:20;;;;;;;2.92;1.80;;;;;;;;;;10277433;28;20043;-68
2022/06/04 09:54:27;;;;;;;7.13;2.03;;;;;;;;;;10278275;28;20330;-72
2022/06/04 09:59:32;;;;;;;2.60;1.55;;;;;;;;;;10263643;28;20061;-69
2022/06/04 10:04:38;;;;;;;1.70;1.60;;;;;;;;;;10271028;28;20078;-69
2022/06/04 10:09:56;;;;;;;1.55;1.40;;;;;;;;;;10254579;28;20075;-68
2022/06/04 10:15:00;;;;;;;4.05;1.60;;;;;;;;;;10267814;29;20074;-69
2022/06/04 10:20:05;;;;;;;4.05;1.30;;;;;;;;;;10252093;29;20047;-69
2022/06/04 10:25:21;;;;;;;1.58;1.48;;;;;;;;;;10268159;28;20066;-69
2022/06/04 10:30:27;;;;;;;1.77;1.67;;;;;;;;;;10261596;29;20109;-67
2022/06/04 10:35:57;;;;;;;2.88;1.60;;;;;;;;;;10262964;28;20051;-69
2022/06/04 10:41:14;;;;;;;2.17;1.77;;;;;;;;;;10282372;28;20241;-68
2022/06/04 10:46:26;;;;;;;3.78;1.92;;;;;;;;;;10280073;28;20334;-68
2022/06/04 10:51:48;;;;;;;4.32;2.30;;;;;;;;;;10279711;28;20264;-68
2022/06/04 10:56:55;;;;;;;5.38;2.17;;;;;;;;;;10257207;29;20066;-69
2022/06/04 11:02:01;;;;;;;2.28;2.08;;;;;;;;;;10274944;28;20051;-68
2022/06/04 11:07:19;;;;;;;1.83;1.73;;;;;;;;;;10279185;28;20343;-69
2022/06/04 11:12:31;;;;;;;6.70;2.03;;;;;;;;;;10254840;29;20040;-68
2022/06/04 11:17:41;;;;;;;3.30;2.15;;;;;;;;;;10272021;28;20059;-68
2022/06/04 11:22:50;;;;;;;3.58;2.15;;;;;;;;;;10258330;29;20054;-72
2022/06/04 11:27:59;;;;;;;3.40;2.15;;;;;;;;;;10264471;28;20064;-69
2022/06/04 11:33:07;;;;;;;3.53;2.55;;;;;;;;;;10282771;28;20067;-70
2022/06/04 11:38:25;;;;;;;4.90;2.20;;;;;;;;;;10282799;28;20094;-68
2022/06/04 11:43:43;;;;;;;2.42;2.03;;;;;;;;;;10271263;29;20043;-69
2022/06/04 11:49:06;;;;;;;4.03;2.00;;;;;;;;;;10278516;28;20047;-69
2022/06/04 11:54:27;;;;;;;6.15;3.13;;;;;;;;;;10253392;28;20040;-70
2022/06/04 11:59:43;;;;;;;3.05;2.35;;;;;;;;;;10282487;28;20043;-72
2022/06/04 12:04:55;;;;;;;2.22;2.00;;;;;;;;;;10267256;29;20043;-72
2022/06/04 12:10:00;;;;;;;;;;;;;;;;;;10284374;28;20321;-70
2022/06/04 12:15:19;;;;;;;2.92;2.50;;;;;;;;;;10282475;28;19954;-72
2022/06/04 12:25:50;;;;;;;5.90;2.35;;;;;;;;;;10276563;28;20044;-68
2022/06/04 12:30:54;;;;;;;11.55;2.88;;;;;;;;;;10275618;28;20350;-69
2022/06/04 12:36:00;;;;;;;3.20;2.22;;;;;;;;;;10281874;28;20062;-70
2022/06/04 12:41:11;;;;;;;5.35;2.70;;;;;;;;;;10278775;28;20381;-70
2022/06/04 12:46:28;;;;;;;23.02;5.78;;;;;;;;;;10287970;28;20250;-68
2022/06/04 12:51:48;;;;;;;8.70;4.32;;;;;;;;;;10283555;28;20062;-73
2022/06/04 12:56:55;;;;;;;4.50;3.28;;;;;;;;;;10279342;28;20365;-71
2022/06/04 13:01:58;;;;;;;8.52;3.78;;;;;;;;;;10265677;28;20040;-68
2022/06/04 13:07:13;;;;;;;3.70;2.65;;;;;;;;;;10273794;28;20043;-72
2022/06/04 13:12:28;;;;;;;4.93;2.83;;;;;;;;;;10270834;28;20224;-69
2022/06/04 13:17:38;;;;;;;4.85;3.10;;;;;;;;;;10285476;28;20054;-69
2022/06/04 13:22:45;;;;;;;6.13;3.10;;;;;;;;;;10282385;28;20070;-73
2022/06/04 13:27:51;;;;;;;6.22;2.95;;;;;;;;;;10284454;28;20067;-70
2022/06/04 13:33:05;;;;;;;4.22;2.63;;;;;;;;;;10275269;28;20138;-72
2022/06/04 13:38:11;;;;;;;3.72;3.20;;;;;;;;;;10285438;28;20055;-71
2022/06/04 13:43:13;;;;;;;4.35;2.95;;;;;;;;;;10289567;28;20047;-72
2022/06/04 13:48:23;;;;;;;4.40;2.53;;;;;;;;;;10284127;28;20051;-69
2022/06/04 13:53:27;;;;;;;5.43;2.25;;;;;;;;;;10282969;28;20054;-71
2022/06/04 13:58:34;;;;;;;4.15;2.45;;;;;;;;;;10282846;28;20047;-70
2022/06/04 14:03:41;;;;;;;2.95;2.55;;;;;;;;;;10271529;29;20223;-69
2022/06/04 14:08:48;;;;;;;5.18;2.60;;;;;;;;;;10280446;28;20052;-72
2022/06/04 14:14:08;;;;;;;4.88;2.63;;;;;;;;;;10278672;28;20046;-68
2022/06/04 14:19:29;;;;;;;3.08;2.33;;;;;;;;;;10271208;29;20051;-72
2022/06/04 14:24:46;;;;;;;2.80;2.60;;;;;;;;;;10269568;28;20039;-69
2022/06/04 14:29:58;;;;;;;4.80;2.80;;;;;;;;;;10260173;28;20067;-68
2022/06/04 14:35:12;;;;;;;3.33;2.40;;;;;;;;;;10275751;28;20074;-67
2022/06/04 14:40:35;;;;;;;4.07;2.85;;;;;;;;;;10279215;28;20126;-68
2022/06/04 14:45:45;;;;;;;8.52;2.10;;;;;;;;;;10259200;29;20051;-68
2022/06/04 14:51:01;;;;;;;2.80;2.47;;;;;;;;;;10278364;28;20247;-69
2022/06/04 14:56:39;;;;;;;2.97;2.50;;;;;;;;;;10255831;29;20242;-68
2022/06/04 15:02:03;;;;;;;6.72;2.75;;;;;;;;;;10268809;28;20219;-68
2022/06/04 15:07:24;;;;;;;5.82;2.92;;;;;;;;;;10275947;28;20051;-69
2022/06/04 15:12:51;;;;;;;5.03;2.53;;;;;;;;;;10249200;29;20511;-68
2022/06/04 15:18:15;;;;;;;4.80;2.53;;;;;;;;;;10259922;29;20110;-68
2022/06/04 15:23:33;;;;;;;7.68;2.80;;;;;;;;;;10279997;28;20039;-67
2022/06/04 15:34:01;;;;;;;2.28;2.08;;;;;;;;;;10268124;28;20051;-68
2022/06/04 15:39:10;;;;;;;7.50;2.95;;;;;;;;;;10281457;28;20043;-68
2022/06/04 15:44:15;;;;;;;4.25;2.70;;;;;;;;;;10268419;28;20070;-68
2022/06/04 15:55:22;;;;;;;4.53;2.50;;;;;;;;;;10276748;28;20043;-69
2022/06/04 16:00:18;;;;;;;8.45;2.55;;;;;;;;;;10287175;28;20039;-68
2022/06/04 16:05:23;;;;;;;2.97;2.20;;;;;;;;;;10282686;28;20040;-71
2022/06/04 16:10:29;;;;;;;3.78;2.60;;;;;;;;;;10284577;28;20042;-69
2022/06/04 16:15:35;;;;;;;9.55;3.15;;;;;;;;;;10278546;28;20327;-69
2022/06/04 16:20:42;;;;;;;7.18;2.97;;;;;;;;;;10271444;29;20071;-69
2022/06/04 16:26:00;;;;;;;2.85;2.55;;;;;;;;;;10281659;28;20222;-69
2022/06/04 16:31:25;;;;;;;3.42;2.40;;;;;;;;;;10276508;28;20047;-69
2022/06/04 16:36:55;;;;;;;6.70;3.05;;;;;;;;;;10268281;28;20059;-68
2022/06/04 16:42:11;;;;;;;9.60;3.77;;;;;;;;;;10261595;28;20051;-68
2022/06/04 16:47:23;;;;;;;5.18;3.25;;;;;;;;;;10282243;28;20063;-68
2022/06/04 16:52:28;;;;;;;4.20;2.72;;;;;;;;;;10270486;28;20039;-67
2022/06/04 16:57:31;;;;;;;8.43;3.92;;;;;;;;;;10287889;28;20133;-68
2022/06/04 17:03:15;;;;;;;3.47;3.17;;;;;;;;;;10270768;28;20086;-68
2022/06/04 17:08:31;;;;;;;7.30;3.93;;;;;;;;;;10283942;28;20073;-68
2022/06/04 17:13:47;;;;;;;6.32;3.95;;;;;;;;;;10274038;28;20050;-69
2022/06/04 17:19:18;;;;;;;6.60;4.22;;;;;;;;;;10286770;28;20058;-69
2022/06/04 17:24:32;;;;;;;5.50;4.00;;;;;;;;;;10281428;28;20054;-70
2022/06/04 17:29:50;;;;;;;10.57;4.70;;;;;;;;;;10268532;28;20071;-70
2022/06/04 17:35:06;;;;;;;7.90;4.32;;;;;;;;;;10280552;28;20054;-69
2022/06/04 17:40:19;;;;;;;8.50;3.65;;;;;;;;;;10274418;28;20122;-68
2022/06/04 17:45:22;;;;;;;7.90;4.55;;;;;;;;;;10274121;28;20046;-68
2022/06/04 17:50:25;;;;;;;;;;;;;;;;;;10284010;28;20070;-69
2022/06/04 17:55:27;;;;;;;7.97;4.15;;;;;;;;;;10284894;28;20224;-69
2022/06/04 18:00:31;;;;;;;10.70;4.38;;;;;;;;;;10286289;28;20057;-68
2022/06/04 18:05:34;;;;;;;6.47;4.30;;;;;;;;;;10263228;28;20051;-68
2022/06/04 18:10:36;;;;;;;8.05;4.97;;;;;;;;;;10271482;28;20047;-69
2022/06/04 18:15:40;;;;;;;9.38;4.93;;;;;;;;;;10281860;28;20059;-68
2022/06/04 18:20:43;;;;;;;6.80;4.20;;;;;;;;;;10275738;28;20039;-68
2022/06/04 18:25:46;;;;;;;6.68;3.60;;;;;;;;;;10283666;28;20049;-70
2022/06/04 18:30:49;;;;;;;4.47;3.50;;;;;;;;;;10266843;28;20066;-68
2022/06/04 18:36:01;;;;;;;15.27;4.55;;;;;;;;;;10268141;29;20350;-70
2022/06/04 18:41:04;;;;;;;6.32;3.25;;;;;;;;;;10270048;28;20345;-67
2022/06/04 18:56:52;;;;;;;9.38;4.60;;;;;;;;;;10274659;28;20199;-68
2022/06/04 19:01:56;;;;;;;8.90;5.28;;;;;;;;;;10265633;28;20051;-69
2022/06/04 19:06:58;;;;;;;6.37;4.23;;;;;;;;;;10276344;28;20165;-67
2022/06/04 19:17:21;;;;;;;7.43;4.45;;;;;;;;;;10273466;28;20066;-67
2022/06/04 19:27:44;;;;;;;8.68;4.32;;;;;;;;;;10269869;28;20086;-68
2022/06/04 19:32:48;;;;;;;7.53;4.78;;;;;;;;;;10276183;28;20044;-72
2022/06/04 19:37:50;;;;;;;5.68;4.22;;;;;;;;;;10285216;28;20078;-69
2022/06/04 19:42:52;;;;;;;10.63;4.30;;;;;;;;;;10281692;28;20047;-67
2022/06/04 19:47:55;;;;;;;7.55;4.53;;;;;;;;;;10270346;28;20058;-68
2022/06/04 19:58:26;;;;;;;8.98;5.38;;;;;;;;;;10182805;29;20111;-68
2022/06/04 20:03:29;;;;;;;5.43;3.80;;;;;;;;;;10185226;29;20056;-67
2022/06/04 20:08:31;;;;;;;7.87;4.30;;;;;;;;;;10182506;29;20390;-68
2022/06/04 20:13:34;;;;;;;11.00;4.60;;;;;;;;;;10188542;29;20152;-68
2022/06/04 20:18:37;;;;;;;9.68;4.43;;;;;;;;;;10195244;29;20379;-68
2022/06/04 20:23:40;;;;;;;5.93;3.47;;;;;;;;;;10196291;29;20112;-69
2022/06/04 20:28:43;;;;;;;21.98;5.68;;;;;;;;;;10184255;29;20052;-68
2022/06/04 20:33:47;;;;;;;4.10;3.17;;;;;;;;;;10250530;29;20059;-68
2022/06/04 20:38:49;;;;;;;;;;;;;;;;;;10276384;28;20220;-68
2022/06/04 20:43:54;;;;;;;5.75;3.30;;;;;;;;;;10272956;28;19941;-67
2022/06/04 20:48:58;;;;;;;18.52;4.45;;;;;;;;;;10271462;28;20138;-68
2022/06/04 20:54:00;;;;;;;9.30;4.13;;;;;;;;;;10288037;28;20101;-68
2022/06/04 20:59:04;;;;;;;9.05;3.75;;;;;;;;;;10280649;28;20094;-67
2022/06/04 21:04:08;;;;;;;;;;;;;;;;;;10274280;29;20059;-67
2022/06/04 21:09:13;;;;;;;5.13;3.42;;;;;;;;;;10259109;28;19933;-67
2022/06/04 21:14:15;;;;;;;7.10;3.60;;;;;;;;;;10287739;28;20331;-68
2022/06/04 21:19:19;;;;;;;6.07;3.90;;;;;;;;;;10273989;28;20057;-68
2022/06/04 21:24:21;;;;;;;6.28;3.58;;;;;;;;;;10272841;28;20078;-67
2022/06/04 21:29:23;;;;;;;6.72;4.00;;;;;;;;;;10270595;28;20056;-71
2022/06/04 21:39:47;;;;;;;7.97;4.15;;;;;;;;;;10278794;28;20114;-68
2022/06/04 21:44:49;;;;;;;11.38;3.83;;;;;;;;;;10288103;28;20043;-68
2022/06/04 21:49:52;;;;;;;6.13;4.00;;;;;;;;;;10288163;28;20050;-68
2022/06/04 21:54:55;;;;;;;5.72;3.53;;;;;;;;;;10287656;28;20047;-68
2022/06/04 21:59:57;;;;;;;9.05;4.03;;;;;;;;;;10288708;28;20118;-67
2022/06/04 22:05:01;;;;;;;6.63;4.57;;;;;;;;;;10286921;28;20434;-67
2022/06/04 22:10:03;;;;;;;8.07;4.05;;;;;;;;;;10287954;28;20055;-67
2022/06/04 22:15:07;;;;;;;7.63;4.13;;;;;;;;;;10287230;28;20039;-68
2022/06/04 22:20:12;;;;;;;12.50;4.33;;;;;;;;;;10287188;28;20068;-69
2022/06/04 22:25:14;;;;;;;5.97;4.10;;;;;;;;;;10287481;28;20473;-68
2022/06/04 22:30:21;;;;;;;7.47;4.07;;;;;;;;;;10276793;28;20339;-68
2022/06/04 22:35:25;;;;;;;6.68;4.28;;;;;;;;;;10286506;28;20321;-66
2022/06/04 22:40:27;;;;;;;8.45;4.20;;;;;;;;;;10273091;28;20067;-67
2022/06/04 22:45:29;;;;;;;6.50;4.30;;;;;;;;;;10273457;28;20113;-66
2022/06/04 22:50:33;;;;;;;8.18;4.57;;;;;;;;;;10286305;28;20270;-68
2022/06/04 22:55:37;;;;;;;6.70;4.38;;;;;;;;;;10285813;28;20043;-68
2022/06/04 23:00:39;;;;;;;;;;;;;;;;;;10273059;28;20070;-67
2022/06/04 23:05:43;;;;;;;11.13;4.43;;;;;;;;;;10284852;28;19950;-67
2022/06/04 23:21:29;;;;;;;9.20;5.40;;;;;;;;;;10285379;28;20338;-68
2022/06/04 23:26:31;;;;;;;8.18;5.40;;;;;;;;;;10285210;28;20043;-68
2022/06/04 23:31:34;;;;;;;9.60;5.55;;;;;;;;;;10271811;28;20067;-67
2022/06/04 23:36:38;;;;;;;18.85;5.93;;;;;;;;;;10285142;28;20043;-68
2022/06/04 23:46:59;;;;;;;10.45;6.32;;;;;;;;;;10284435;28;20296;-68
2022/06/04 23:52:03;;;;;;;14.48;6.70;;;;;;;;;;10284738;28;20046;-68
2022/06/04 23:57:06;;;;;;;11.88;6.53;;;;;;;;;;10283416;28;20055;-68
